createdAt,value
2018-11-29T00:01:37.518Z,2.50
2018-11-29T00:04:07.018Z,2.30
2018-11-29T00:06:36.531Z,2.33
2018-11-29T00:09:07.947Z,2.70
2018-11-29T00:11:37.442Z,2.23
2018-11-29T00:14:06.758Z,2.47
2018-11-29T00:16:36.221Z,3.07
2018-11-29T00:19:06.154Z,3.07
2018-11-29T00:21:35.558Z,3.00
2018-11-29T00:24:04.994Z,3.37
2018-11-29T00:26:34.200Z,2.77
2018-11-29T00:29:03.503Z,3.20
2018-11-29T00:31:32.983Z,3.50
2018-11-29T02:49:29.508Z,11.30
2018-11-29T02:51:58.835Z,12.27
2018-11-29T02:54:27.983Z,11.57
2018-11-29T02:56:57.551Z,8.10
2018-11-29T02:59:26.925Z,11.53
2018-11-29T03:01:56.339Z,11.40
2018-11-29T03:04:25.978Z,13.20
2018-11-29T03:06:55.250Z,11.97
2018-11-29T03:09:24.374Z,13.27
2018-11-29T03:11:53.871Z,13.80
2018-11-29T03:14:23.008Z,10.70
2018-11-29T03:16:52.208Z,12.00
2018-11-29T03:19:21.579Z,13.23
2018-11-29T03:21:51.007Z,12.53
2018-11-29T03:24:20.226Z,14.77
2018-11-29T03:26:49.604Z,11.27
2018-11-29T03:29:18.946Z,13.80
2018-11-29T03:31:48.326Z,13.23
2018-11-29T03:34:17.707Z,15.57
2018-11-29T03:36:47.088Z,15.73
2018-11-29T03:39:16.259Z,14.83
2018-11-29T03:41:45.703Z,16.13
2018-11-29T03:44:15.286Z,15.33
2018-11-29T03:46:44.537Z,15.70
2018-11-29T03:49:14.121Z,13.97
2018-11-29T03:51:43.360Z,11.83
2018-11-29T03:54:12.532Z,8.17
2018-11-29T03:56:41.918Z,18.77
2018-11-29T03:59:11.036Z,14.53
2018-11-29T04:01:40.426Z,18.30
2018-11-29T04:04:09.949Z,10.27
2018-11-29T04:06:39.247Z,15.93
2018-11-29T04:09:12.020Z,17.47
2018-11-29T04:11:41.196Z,10.03
2018-11-29T04:14:10.701Z,18.63
2018-11-29T04:16:40.315Z,17.77
2018-11-29T04:19:09.443Z,21.80
2018-11-29T04:21:38.762Z,22.53
2018-11-29T04:24:08.461Z,13.83
2018-11-29T04:26:37.619Z,16.77
2018-11-29T04:29:06.790Z,13.60
2018-11-29T04:31:36.263Z,11.13
2018-11-29T04:34:05.466Z,20.10
2018-11-29T04:36:34.928Z,21.37
2018-11-29T04:39:04.754Z,18.13
2018-11-29T04:41:34.079Z,21.23
2018-11-29T04:44:03.632Z,22.47
2018-11-29T04:46:40.715Z,15.80
2018-11-29T04:49:10.035Z,13.57
2018-11-29T04:51:39.234Z,16.83
2018-11-29T04:54:09.162Z,14.70
2018-11-29T04:56:38.481Z,19.57
2018-11-29T04:59:07.844Z,21.63
2018-11-29T05:01:37.484Z,19.87
2018-11-29T05:04:07.333Z,11.07
2018-11-29T05:06:36.606Z,23.93
2018-11-29T05:09:08.994Z,17.90
2018-11-29T05:11:38.745Z,21.43
2018-11-29T05:14:08.270Z,19.97
2018-11-29T05:16:37.900Z,17.80
2018-11-29T05:19:07.221Z,19.03
2018-11-29T05:21:36.557Z,21.67
2018-11-29T05:24:06.211Z,21.33
2018-11-29T05:26:35.488Z,21.50
2018-11-29T05:29:04.922Z,20.80
2018-11-29T05:31:34.923Z,16.63
2018-11-29T05:34:04.233Z,22.83
2018-11-29T05:36:33.575Z,18.60
2018-11-29T05:39:04.415Z,20.23
2018-11-29T05:41:33.950Z,14.43
2018-11-29T05:44:03.230Z,22.53
2018-11-29T05:46:32.746Z,20.43
2018-11-29T05:49:02.076Z,20.00
2018-11-29T05:51:31.322Z,25.27
2018-11-29T05:54:00.752Z,25.23
2018-11-29T05:56:29.779Z,21.50
2018-11-29T05:58:58.814Z,24.20
2018-11-29T06:01:31.669Z,23.13
2018-11-29T06:04:00.970Z,20.00
2018-11-29T06:06:30.225Z,17.50
2018-11-29T06:08:59.984Z,16.03
2018-11-29T06:11:29.341Z,23.90
2018-11-29T06:13:58.873Z,17.77
2018-11-29T06:16:28.421Z,15.80
2018-11-29T06:18:58.051Z,18.17
2018-11-29T06:21:27.520Z,24.10
2018-11-29T06:23:57.344Z,19.93
2018-11-29T06:26:27.096Z,22.30
2018-11-29T06:28:56.832Z,24.37
2018-11-29T06:31:26.419Z,21.50
2018-11-29T06:33:55.666Z,24.43
2018-11-29T06:36:24.700Z,23.80
2018-11-29T06:38:54.355Z,19.40
2018-11-29T06:41:24.682Z,17.60
2018-11-29T06:43:53.956Z,24.63
2018-11-29T06:46:23.180Z,12.53
2018-11-29T06:48:52.683Z,16.87
2018-11-29T06:51:22.154Z,23.63
2018-11-29T06:53:56.636Z,25.57
2018-11-29T06:56:25.942Z,17.37
2018-11-29T06:58:55.482Z,23.93
2018-11-29T07:01:25.089Z,23.43
2018-11-29T07:03:54.560Z,17.48
2018-11-29T07:06:24.167Z,22.50
2018-11-29T07:08:53.661Z,23.10
2018-11-29T07:11:23.021Z,23.87
2018-11-29T07:13:52.479Z,22.67
2018-11-29T07:16:22.251Z,19.47
2018-11-29T07:18:51.717Z,15.63
2018-11-29T07:21:32.005Z,21.93
2018-11-29T07:24:01.231Z,20.70
2018-11-29T07:26:30.545Z,23.63
2018-11-29T07:29:00.207Z,12.20
2018-11-29T07:31:29.894Z,25.93
2018-11-29T07:33:59.548Z,17.27
2018-11-29T07:36:28.932Z,26.13
2018-11-29T07:38:58.423Z,13.65
2018-11-29T07:41:27.757Z,19.33
2018-11-29T07:43:57.308Z,21.83
2018-11-29T07:46:26.830Z,22.10
2018-11-29T07:48:56.426Z,21.30
2018-11-29T07:51:25.816Z,22.27
2018-11-29T07:53:55.182Z,13.03
2018-11-29T07:56:24.502Z,20.60
2018-11-29T07:58:53.923Z,15.17
2018-11-29T08:01:23.264Z,16.17
2018-11-29T08:03:52.731Z,17.73
2018-11-29T08:06:22.156Z,16.20
2018-11-29T08:08:51.360Z,18.57
2018-11-29T08:11:21.480Z,17.37
2018-11-29T08:13:50.794Z,16.60
2018-11-29T08:16:20.259Z,18.97
2018-11-29T08:18:49.648Z,18.27
2018-11-29T08:21:19.313Z,16.60
2018-11-29T08:23:48.514Z,15.17
2018-11-29T08:26:17.864Z,7.80
2018-11-29T08:28:47.488Z,13.43
2018-11-29T08:31:16.801Z,12.40
2018-11-29T08:33:46.117Z,6.47
2018-11-29T08:36:15.774Z,9.97
2018-11-29T08:38:45.087Z,11.97
2018-11-29T08:41:14.486Z,11.07
2018-11-29T08:43:44.333Z,11.37
2018-11-29T08:46:13.713Z,11.67
2018-11-29T08:48:43.117Z,11.13
2018-11-29T08:51:12.824Z,6.37
2018-11-29T08:53:42.120Z,13.63
2018-11-29T08:56:11.179Z,5.77
2018-11-29T08:58:40.551Z,8.97
2018-11-29T09:01:15.470Z,11.33
2018-11-29T09:03:44.916Z,10.53
2018-11-29T09:06:14.353Z,7.60
2018-11-29T09:08:43.593Z,6.60
2018-11-29T09:11:13.109Z,9.43
2018-11-29T09:13:42.348Z,11.90
2018-11-29T09:16:11.682Z,10.90
2018-11-29T09:18:41.093Z,12.10
2018-11-29T09:21:10.136Z,9.83
2018-11-29T09:23:39.547Z,9.30
2018-11-29T09:26:09.404Z,11.13
2018-11-29T09:28:38.673Z,12.43
2018-11-29T09:31:07.734Z,11.27
2018-11-29T09:33:37.087Z,11.30
2018-11-29T09:36:06.301Z,8.17
2018-11-29T09:38:35.377Z,12.33
2018-11-29T09:41:04.830Z,10.50
2018-11-29T09:43:33.995Z,10.77
2018-11-29T09:46:03.268Z,11.83
2018-11-29T09:48:32.607Z,10.93
2018-11-29T09:51:01.973Z,11.27
2018-11-29T09:53:33.030Z,9.77
2018-11-29T09:56:01.093Z,9.90
2018-11-29T09:58:30.500Z,11.27
2018-11-29T10:01:00.190Z,11.23
2018-11-29T10:03:30.129Z,10.17
2018-11-29T10:05:59.576Z,8.43
2018-11-29T10:08:29.308Z,7.27
2018-11-29T10:10:59.049Z,11.63
2018-11-29T10:13:28.465Z,8.53
2018-11-29T10:15:57.977Z,8.40
2018-11-29T10:18:27.586Z,11.70
2018-11-29T10:20:56.887Z,11.33
2018-11-29T10:23:26.345Z,9.97
2018-11-29T10:25:55.903Z,9.10
2018-11-29T10:28:25.329Z,11.83
2018-11-29T10:30:58.170Z,11.57
2018-11-29T10:33:27.524Z,11.83
2018-11-29T10:35:59.325Z,4.33
2018-11-29T10:38:26.791Z,12.20
2018-11-29T10:40:56.065Z,11.40
2018-11-29T10:43:25.423Z,10.17
2018-11-29T10:45:55.070Z,12.27
2018-11-29T10:48:25.027Z,11.37
2018-11-29T10:50:54.392Z,12.43
2018-11-29T10:53:24.084Z,8.73
2018-11-29T10:55:53.705Z,12.23
2018-11-29T10:58:23.691Z,12.07
2018-11-29T11:00:58.196Z,12.57
2018-11-29T11:03:28.042Z,10.23
2018-11-29T11:05:57.428Z,12.33
2018-11-29T11:08:26.983Z,8.60
2018-11-29T11:10:56.292Z,9.97
2018-11-29T11:13:26.200Z,9.37
2018-11-29T11:15:56.436Z,9.57
2018-11-29T11:18:25.807Z,10.17
2018-11-29T11:20:55.099Z,6.57
2018-11-29T11:23:24.627Z,8.53
2018-11-29T11:25:54.205Z,8.20
2018-11-29T11:28:24.211Z,8.43
2018-11-29T11:30:53.886Z,7.67
2018-11-29T11:33:23.198Z,8.43
2018-11-29T11:35:53.033Z,8.10
2018-11-29T11:38:22.413Z,9.10
2018-11-29T11:40:52.038Z,8.53
2018-11-29T11:43:21.407Z,7.53
2018-11-29T11:45:50.982Z,7.67
2018-11-29T11:48:20.462Z,5.70
2018-11-29T11:50:50.226Z,7.37
2018-11-29T11:53:19.614Z,9.27
2018-11-29T11:55:53.561Z,7.53
2018-11-29T11:58:18.750Z,7.80
2018-11-29T12:00:48.362Z,7.77
2018-11-29T12:03:17.831Z,8.00
2018-11-29T12:05:47.570Z,8.63
2018-11-29T12:08:17.280Z,9.33
2018-11-29T12:10:46.598Z,8.70
2018-11-29T12:13:15.898Z,5.87
2018-11-29T12:15:45.322Z,8.17
2018-11-29T12:18:14.993Z,7.53
2018-11-29T12:20:44.327Z,6.47
2018-11-29T12:23:14.000Z,6.63
2018-11-29T12:25:44.252Z,6.33
2018-11-29T12:28:13.590Z,7.50
2018-11-29T12:30:45.319Z,7.13
2018-11-29T12:33:14.757Z,7.07
2018-11-29T12:35:43.985Z,6.77
2018-11-29T12:38:13.405Z,7.73
2018-11-29T12:40:42.840Z,8.07
2018-11-29T12:43:12.229Z,7.10
2018-11-29T12:45:41.716Z,7.57
2018-11-29T12:48:11.075Z,8.33
2018-11-29T12:50:40.783Z,3.40
2018-11-29T12:53:10.419Z,6.73
2018-11-29T12:55:42.030Z,7.07
2018-11-29T12:58:11.478Z,7.13
2018-11-29T13:00:40.936Z,6.07
2018-11-29T13:03:10.513Z,5.33
2018-11-29T13:05:40.091Z,6.77
2018-11-29T13:08:09.910Z,5.83
2018-11-29T13:10:39.153Z,4.80
2018-11-29T13:13:08.767Z,4.23
2018-11-29T13:15:38.221Z,7.67
2018-11-29T13:18:09.483Z,7.00
2018-11-29T13:20:39.020Z,7.47
2018-11-29T13:23:08.336Z,2.63
2018-11-29T13:25:37.879Z,5.83
2018-11-29T13:28:07.923Z,6.60
2018-11-29T13:30:38.179Z,7.77
2018-11-29T13:33:09.037Z,7.97
2018-11-29T13:35:38.500Z,7.87
2018-11-29T13:38:11.314Z,7.83
2018-11-29T13:40:41.065Z,6.27
2018-11-29T13:43:10.564Z,7.43
2018-11-29T13:45:40.074Z,8.23
2018-11-29T13:48:10.980Z,8.40
2018-11-29T13:50:41.070Z,7.23
2018-11-29T13:53:10.405Z,7.80
2018-11-29T13:55:40.313Z,8.60
2018-11-29T13:58:09.393Z,8.77
2018-11-29T14:00:38.826Z,8.30
2018-11-29T14:03:11.878Z,8.87
2018-11-29T14:05:41.386Z,8.00
2018-11-29T14:08:11.229Z,7.57
2018-11-29T14:10:41.761Z,6.63
2018-11-29T14:13:11.222Z,7.70
2018-11-29T14:15:40.720Z,8.80
2018-11-29T14:18:10.144Z,5.77
2018-11-29T14:20:39.545Z,8.50
2018-11-29T14:23:08.995Z,8.10
2018-11-29T14:25:38.414Z,8.10
2018-11-29T14:28:08.466Z,7.33
2018-11-29T14:30:37.827Z,8.27
2018-11-29T14:33:08.027Z,8.63
2018-11-29T14:35:37.429Z,8.93
2018-11-29T14:38:07.009Z,7.53
2018-11-29T14:40:37.410Z,7.77
2018-11-29T14:43:07.488Z,7.23
2018-11-29T14:45:36.759Z,9.17
2018-11-29T14:48:06.151Z,9.10
2018-11-29T14:50:38.750Z,7.93
2018-11-29T14:53:09.023Z,9.07
2018-11-29T14:55:38.859Z,8.17
2018-11-29T14:58:12.350Z,8.67
2018-11-29T15:00:41.760Z,9.53
2018-11-29T15:03:15.203Z,9.03
2018-11-29T15:05:44.809Z,9.47
2018-11-29T15:08:14.520Z,8.97
2018-11-29T15:10:44.068Z,8.40
2018-11-29T15:13:13.612Z,9.80
2018-11-29T15:15:43.428Z,10.20
2018-11-29T15:18:12.902Z,9.50
2018-11-29T15:20:47.311Z,10.00
2018-11-29T15:23:18.778Z,10.00
2018-11-29T15:25:48.049Z,10.03
2018-11-29T15:28:17.496Z,8.97
2018-11-29T15:30:46.901Z,9.27
2018-11-29T15:33:16.304Z,10.90
2018-11-29T15:35:45.844Z,11.53
2018-11-29T15:38:15.385Z,11.17
2018-11-29T15:40:44.886Z,11.30
2018-11-29T15:43:14.399Z,11.67
2018-11-29T15:45:44.038Z,10.73
2018-11-29T15:48:13.177Z,9.80
2018-11-29T15:50:42.596Z,10.40
2018-11-29T15:53:12.194Z,9.57
2018-11-29T15:55:41.772Z,9.87
2018-11-29T15:58:11.134Z,11.03
2018-11-29T16:00:40.736Z,10.63
2018-11-29T16:03:10.417Z,11.67
2018-11-29T16:05:41.263Z,11.00
2018-11-29T16:08:09.869Z,11.50
2018-11-29T16:10:39.552Z,11.60
2018-11-29T16:13:09.514Z,9.20
2018-11-29T16:15:39.203Z,11.57
2018-11-29T16:18:08.242Z,11.83
2018-11-29T16:20:38.649Z,9.80
2018-11-29T16:23:09.654Z,10.37
2018-11-29T16:25:39.046Z,11.40
2018-11-29T16:28:09.102Z,11.03
2018-11-29T16:30:42.618Z,10.77
2018-11-29T16:33:17.893Z,10.10
2018-11-29T16:35:47.571Z,9.77
2018-11-29T16:38:17.009Z,9.80
2018-11-29T16:40:46.418Z,9.83
2018-11-29T16:43:16.066Z,10.30
2018-11-29T16:45:45.536Z,9.53
2018-11-29T16:48:15.033Z,9.90
2018-11-29T16:50:44.973Z,8.83
2018-11-29T16:53:14.371Z,9.43
2018-11-29T16:55:43.792Z,8.90
2018-11-29T16:58:15.810Z,7.60
2018-11-29T17:00:45.138Z,7.73
2018-11-29T17:03:14.531Z,7.03
2018-11-29T17:05:44.191Z,9.20
2018-11-29T17:08:13.529Z,9.53
2018-11-29T17:10:42.800Z,9.33
2018-11-29T17:13:14.952Z,5.70
2018-11-29T17:15:44.532Z,9.03
2018-11-29T17:18:13.901Z,9.03
2018-11-29T17:20:43.455Z,7.83
2018-11-29T17:23:13.733Z,8.70
2018-11-29T17:25:43.487Z,9.37
2018-11-29T17:28:13.150Z,8.17
2018-11-29T17:30:42.700Z,9.27
2018-11-29T17:33:11.789Z,7.43
2018-11-29T17:35:41.499Z,7.23
2018-11-29T17:38:11.007Z,8.00
2018-11-29T17:40:40.370Z,8.10
2018-11-29T17:43:09.656Z,8.63
2018-11-29T17:45:39.040Z,8.57
2018-11-29T17:48:09.743Z,8.40
2018-11-29T17:50:40.332Z,8.50
2018-11-29T17:53:10.004Z,8.77
2018-11-29T17:55:39.618Z,7.90
2018-11-29T17:58:12.960Z,7.70
2018-11-29T18:00:42.489Z,7.70
2018-11-29T18:03:12.391Z,8.33
2018-11-29T18:05:42.080Z,7.93
2018-11-29T18:08:11.591Z,8.03
2018-11-29T18:10:41.732Z,7.30
2018-11-29T18:13:20.250Z,8.10
2018-11-29T18:15:50.007Z,5.33
2018-11-29T18:18:19.452Z,6.17
2018-11-29T18:20:48.832Z,7.20
2018-11-29T18:23:18.264Z,8.17
2018-11-29T18:25:47.715Z,7.87
2018-11-29T18:28:17.333Z,6.70
2018-11-29T18:30:47.097Z,6.60
2018-11-29T18:33:16.913Z,6.90
2018-11-29T18:35:46.416Z,6.63
2018-11-29T18:38:15.655Z,8.07
2018-11-29T18:40:45.066Z,7.03
2018-11-29T18:43:14.670Z,6.17
2018-11-29T18:45:43.935Z,6.53
2018-11-29T18:48:13.437Z,4.70
2018-11-29T18:50:42.939Z,4.40
2018-11-29T18:53:12.008Z,5.53
2018-11-29T18:55:41.431Z,4.43
2018-11-29T18:58:10.912Z,5.10
2018-11-29T19:00:40.739Z,6.50
2018-11-29T19:03:10.002Z,6.43
2018-11-29T19:05:39.529Z,6.47
2018-11-29T19:08:10.366Z,7.33
2018-11-29T19:10:39.512Z,7.43
2018-11-29T19:13:11.514Z,7.97
2018-11-29T19:15:41.044Z,8.50
2018-11-29T19:18:10.977Z,8.17
2018-11-29T19:20:40.268Z,9.30
2018-11-29T19:23:09.968Z,9.20
2018-11-29T19:25:39.294Z,10.20
2018-11-29T19:28:09.895Z,10.67
2018-11-29T19:30:39.348Z,11.30
2018-11-29T19:33:17.346Z,9.37
2018-11-29T19:35:44.402Z,7.90
2018-11-29T19:38:17.950Z,12.80
2018-11-29T19:40:47.836Z,13.43
2018-11-29T19:43:17.938Z,9.90
2018-11-29T19:45:54.824Z,14.67
2018-11-29T19:48:26.572Z,12.63
2018-11-29T19:50:56.014Z,14.57
2018-11-29T19:53:26.996Z,14.40
2018-11-29T19:55:59.776Z,7.47
2018-11-29T19:58:29.310Z,11.30
2018-11-29T20:00:58.711Z,19.77
2018-11-29T20:03:28.274Z,13.57
2018-11-29T20:05:57.768Z,13.90
2018-11-29T20:08:27.534Z,21.03
2018-11-29T20:10:56.964Z,18.07
2018-11-29T20:13:29.230Z,22.23
2018-11-29T20:15:59.743Z,24.20
2018-11-29T20:18:29.005Z,10.37
2018-11-29T20:20:58.752Z,18.27
2018-11-29T20:23:28.041Z,24.23
2018-11-29T20:25:57.487Z,27.23
2018-11-29T20:28:26.914Z,17.67
2018-11-29T20:30:56.277Z,16.77
2018-11-29T20:33:25.402Z,14.97
2018-11-29T20:35:54.874Z,23.17
2018-11-29T20:38:25.137Z,25.23
2018-11-29T20:40:54.285Z,20.63
2018-11-29T20:43:23.814Z,22.63
2018-11-29T20:45:55.187Z,23.07
2018-11-29T20:48:26.987Z,29.00
2018-11-29T20:50:57.996Z,21.47
2018-11-29T20:53:36.494Z,23.80
2018-11-29T20:56:07.515Z,26.77
2018-11-29T20:58:36.744Z,25.37
2018-11-29T21:01:07.112Z,25.90
2018-11-29T21:03:36.505Z,24.10
2018-11-29T21:06:07.943Z,26.37
2018-11-29T21:08:37.755Z,22.63
2018-11-29T21:11:07.034Z,22.43
2018-11-29T21:13:36.798Z,21.23
2018-11-29T21:16:06.709Z,22.67
2018-11-29T21:18:36.577Z,20.57
2018-11-29T21:21:05.867Z,19.57
2018-11-29T21:23:35.789Z,23.03
2018-11-29T21:26:05.185Z,20.03
2018-11-29T21:28:35.092Z,20.40
2018-11-29T21:31:04.819Z,14.20
2018-11-29T21:33:34.134Z,20.23
2018-11-29T21:36:03.962Z,17.13
2018-11-29T21:38:33.445Z,16.50
2018-11-29T21:41:05.497Z,18.57
2018-11-29T21:43:34.552Z,18.93
2018-11-29T21:46:03.936Z,20.07
2018-11-29T21:48:34.410Z,19.10
2018-11-29T21:51:03.577Z,16.67
2018-11-29T21:53:33.040Z,17.87
2018-11-29T21:56:02.269Z,17.63
2018-11-29T21:58:31.474Z,16.23
2018-11-29T22:01:00.703Z,18.57
2018-11-29T22:03:31.585Z,17.50
2018-11-29T22:06:02.485Z,16.70
2018-11-29T22:08:33.853Z,14.30
2018-11-29T22:11:03.142Z,20.07
2018-11-29T22:13:32.186Z,18.07
2018-11-29T22:16:03.882Z,19.00
2018-11-29T22:18:33.292Z,17.87
2018-11-29T22:21:04.739Z,21.67
2018-11-29T22:23:35.343Z,20.80
2018-11-29T22:26:07.405Z,18.30
2018-11-29T22:28:37.298Z,19.17
2018-11-29T22:31:10.781Z,20.53
2018-11-29T22:33:55.916Z,19.20
2018-11-29T22:36:44.797Z,18.27
2018-11-29T22:39:16.621Z,21.50
2018-11-29T22:41:51.432Z,17.90
2018-11-29T22:44:21.672Z,20.13
2018-11-29T22:46:50.836Z,18.90
2018-11-29T22:49:21.769Z,21.60
2018-11-29T22:51:56.365Z,19.80
2018-11-29T22:54:25.744Z,21.23
2018-11-29T22:56:59.875Z,19.30
2018-11-29T23:02:33.309Z,25.03
2018-11-29T23:05:02.704Z,23.40
2018-11-29T23:07:31.840Z,23.47
2018-11-29T23:10:00.964Z,19.97
2018-11-29T23:12:30.256Z,22.10
2018-11-29T23:14:59.396Z,21.80
2018-11-29T23:17:28.908Z,21.27
2018-11-29T23:19:58.099Z,21.60
2018-11-29T23:22:27.292Z,18.70
2018-11-29T23:24:56.851Z,23.13
2018-11-29T23:27:25.908Z,21.80
2018-11-29T23:29:54.906Z,21.73
2018-11-29T23:32:24.441Z,20.47
2018-11-29T23:34:53.640Z,18.37
2018-11-29T23:37:23.596Z,20.73
2018-11-29T23:39:52.909Z,16.07
2018-11-29T23:42:21.910Z,19.30
2018-11-29T23:44:50.893Z,19.43
2018-11-29T23:47:20.138Z,8.97
2018-11-29T23:49:49.334Z,16.37
2018-11-29T23:52:18.427Z,15.67
2018-11-29T23:54:48.213Z,18.33
2018-11-29T23:57:17.283Z,12.60
2018-11-29T23:59:46.323Z,12.60
